sensor_id;sensor_type;location;lat;lon;timestamp;pressure;altitude;pressure_sealevel;temperature;humidity
45991;BME280;31721;41.740;-88.000;2023-07-30T00:01:08;99112.77;;;26.98;34.66
45991;BME280;31721;41.740;-88.000;2023-07-30T00:03:35;99108.94;;;26.87;34.92
45991;BME280;31721;41.740;-88.000;2023-07-30T00:06:03;99102.27;;;26.75;34.16
45991;BME280;31721;41.740;-88.000;2023-07-30T00:08:31;99098.59;;;26.67;34.36
45991;BME280;31721;41.740;-88.000;2023-07-30T00:10:58;99093.21;;;26.66;34.18
45991;BME280;31721;41.740;-88.000;2023-07-30T00:13:26;99093.91;;;26.61;34.86
45991;BME280;31721;41.740;-88.000;2023-07-30T00:15:54;99101.42;;;26.45;34.92
45991;BME280;31721;41.740;-88.000;2023-07-30T00:18:22;99091.84;;;26.32;34.55
45991;BME280;31721;41.740;-88.000;2023-07-30T00:20:50;99084.87;;;26.27;34.84
45991;BME280;31721;41.740;-88.000;2023-07-30T00:23:17;99087.38;;;26.25;34.69
45991;BME280;31721;41.740;-88.000;2023-07-30T00:25:45;99085.11;;;26.23;34.93
45991;BME280;31721;41.740;-88.000;2023-07-30T00:28:13;99090.82;;;26.18;34.66
45991;BME280;31721;41.740;-88.000;2023-07-30T00:30:41;99091.39;;;26.10;34.41
45991;BME280;31721;41.740;-88.000;2023-07-30T00:33:08;99090.57;;;25.95;34.50
45991;BME280;31721;41.740;-88.000;2023-07-30T00:35:36;99090.50;;;25.94;34.66
45991;BME280;31721;41.740;-88.000;2023-07-30T00:38:04;99083.35;;;25.81;34.78
45991;BME280;31721;41.740;-88.000;2023-07-30T00:40:31;99085.10;;;25.78;34.94
45991;BME280;31721;41.740;-88.000;2023-07-30T00:42:59;99083.24;;;25.93;35.12
45991;BME280;31721;41.740;-88.000;2023-07-30T00:45:28;99084.18;;;25.82;35.11
45991;BME280;31721;41.740;-88.000;2023-07-30T00:47:56;99077.39;;;25.56;35.02
45991;BME280;31721;41.740;-88.000;2023-07-30T00:50:25;99072.96;;;25.47;34.99
45991;BME280;31721;41.740;-88.000;2023-07-30T00:52:53;99076.58;;;25.38;34.77
45991;BME280;31721;41.740;-88.000;2023-07-30T00:55:22;99080.63;;;25.31;35.19
45991;BME280;31721;41.740;-88.000;2023-07-30T00:57:50;99083.46;;;25.37;35.01
45991;BME280;31721;41.740;-88.000;2023-07-30T01:00:19;99090.71;;;25.23;35.27
45991;BME280;31721;41.740;-88.000;2023-07-30T01:02:47;99091.90;;;25.18;35.27
45991;BME280;31721;41.740;-88.000;2023-07-30T01:05:16;99085.68;;;25.11;35.26
45991;BME280;31721;41.740;-88.000;2023-07-30T01:07:44;99088.57;;;25.17;35.60
45991;BME280;31721;41.740;-88.000;2023-07-30T01:10:12;99095.73;;;25.10;35.60
45991;BME280;31721;41.740;-88.000;2023-07-30T01:12:41;99098.46;;;24.99;35.47
45991;BME280;31721;41.740;-88.000;2023-07-30T01:15:10;99098.16;;;24.91;35.62
45991;BME280;31721;41.740;-88.000;2023-07-30T01:17:38;99091.22;;;24.85;36.17
45991;BME280;31721;41.740;-88.000;2023-07-30T01:20:07;99092.41;;;24.79;36.51
45991;BME280;31721;41.740;-88.000;2023-07-30T01:22:35;99097.61;;;24.68;36.31
45991;BME280;31721;41.740;-88.000;2023-07-30T01:25:03;99100.99;;;24.63;36.62
45991;BME280;31721;41.740;-88.000;2023-07-30T01:27:36;99099.80;;;24.63;37.05
45991;BME280;31721;41.740;-88.000;2023-07-30T01:30:11;99099.93;;;24.47;37.07
45991;BME280;31721;41.740;-88.000;2023-07-30T01:32:41;99102.02;;;24.46;37.19
45991;BME280;31721;41.740;-88.000;2023-07-30T01:35:10;99104.51;;;24.28;37.33
45991;BME280;31721;41.740;-88.000;2023-07-30T01:37:41;99109.65;;;24.29;37.84
45991;BME280;31721;41.740;-88.000;2023-07-30T01:40:11;99107.65;;;24.31;38.13
45991;BME280;31721;41.740;-88.000;2023-07-30T01:42:40;99100.29;;;24.23;38.12
45991;BME280;31721;41.740;-88.000;2023-07-30T01:45:08;99103.10;;;24.17;38.63
45991;BME280;31721;41.740;-88.000;2023-07-30T01:47:36;99105.20;;;23.99;38.30
45991;BME280;31721;41.740;-88.000;2023-07-30T01:50:04;99103.56;;;24.02;38.94
45991;BME280;31721;41.740;-88.000;2023-07-30T01:52:32;99105.31;;;23.98;38.95
45991;BME280;31721;41.740;-88.000;2023-07-30T01:55:00;99113.08;;;23.90;38.86
45991;BME280;31721;41.740;-88.000;2023-07-30T01:57:28;99113.73;;;23.84;39.08
45991;BME280;31721;41.740;-88.000;2023-07-30T01:59:56;99119.17;;;23.78;39.28
45991;BME280;31721;41.740;-88.000;2023-07-30T02:02:24;99123.84;;;23.68;39.22
45991;BME280;31721;41.740;-88.000;2023-07-30T02:04:52;99124.09;;;23.63;39.55
45991;BME280;31721;41.740;-88.000;2023-07-30T02:07:20;99128.71;;;23.58;40.25
45991;BME280;31721;41.740;-88.000;2023-07-30T02:09:49;99139.21;;;23.49;39.75
45991;BME280;31721;41.740;-88.000;2023-07-30T02:12:17;99149.93;;;23.43;39.73
45991;BME280;31721;41.740;-88.000;2023-07-30T02:14:44;99152.94;;;23.46;40.31
45991;BME280;31721;41.740;-88.000;2023-07-30T02:17:12;99146.54;;;23.46;40.69
45991;BME280;31721;41.740;-88.000;2023-07-30T02:19:41;99145.57;;;23.32;40.39
45991;BME280;31721;41.740;-88.000;2023-07-30T02:22:09;99145.44;;;23.26;40.67
45991;BME280;31721;41.740;-88.000;2023-07-30T02:24:37;99151.62;;;23.28;40.79
45991;BME280;31721;41.740;-88.000;2023-07-30T02:27:05;99151.87;;;23.24;41.33
45991;BME280;31721;41.740;-88.000;2023-07-30T02:29:33;99148.85;;;23.19;41.44
45991;BME280;31721;41.740;-88.000;2023-07-30T02:32:01;99150.24;;;23.12;41.99
45991;BME280;31721;41.740;-88.000;2023-07-30T02:34:29;99155.30;;;23.11;42.08
45991;BME280;31721;41.740;-88.000;2023-07-30T02:36:57;99154.48;;;23.02;42.11
45991;BME280;31721;41.740;-88.000;2023-07-30T02:39:26;99152.39;;;22.95;42.59
45991;BME280;31721;41.740;-88.000;2023-07-30T02:41:54;99150.64;;;22.97;42.79
45991;BME280;31721;41.740;-88.000;2023-07-30T02:44:22;99149.76;;;22.91;42.88
45991;BME280;31721;41.740;-88.000;2023-07-30T02:46:51;99149.34;;;22.80;42.90
45991;BME280;31721;41.740;-88.000;2023-07-30T02:49:20;99149.52;;;22.79;42.71
45991;BME280;31721;41.740;-88.000;2023-07-30T02:51:49;99153.29;;;22.73;43.16
45991;BME280;31721;41.740;-88.000;2023-07-30T02:54:17;99161.98;;;22.75;43.47
45991;BME280;31721;41.740;-88.000;2023-07-30T02:56:47;99162.70;;;22.62;43.70
45991;BME280;31721;41.740;-88.000;2023-07-30T02:59:14;99163.31;;;22.66;43.78
45991;BME280;31721;41.740;-88.000;2023-07-30T03:01:42;99166.55;;;22.53;44.02
45991;BME280;31721;41.740;-88.000;2023-07-30T03:04:10;99172.17;;;22.49;43.95
45991;BME280;31721;41.740;-88.000;2023-07-30T03:06:38;99169.51;;;22.52;44.12
45991;BME280;31721;41.740;-88.000;2023-07-30T03:09:07;99169.91;;;22.48;44.21
45991;BME280;31721;41.740;-88.000;2023-07-30T03:11:35;99172.76;;;22.42;44.21
45991;BME280;31721;41.740;-88.000;2023-07-30T03:14:02;99170.95;;;22.32;44.72
45991;BME280;31721;41.740;-88.000;2023-07-30T03:16:30;99168.29;;;22.27;44.88
45991;BME280;31721;41.740;-88.000;2023-07-30T03:18:59;99169.06;;;22.33;45.04
45991;BME280;31721;41.740;-88.000;2023-07-30T03:21:27;99172.31;;;22.30;44.90
45991;BME280;31721;41.740;-88.000;2023-07-30T03:23:55;99174.67;;;22.24;44.97
45991;BME280;31721;41.740;-88.000;2023-07-30T03:26:23;99175.17;;;22.27;45.25
45991;BME280;31721;41.740;-88.000;2023-07-30T03:28:51;99175.42;;;22.23;45.25
45991;BME280;31721;41.740;-88.000;2023-07-30T03:31:19;99175.43;;;22.20;45.52
45991;BME280;31721;41.740;-88.000;2023-07-30T03:33:47;99175.27;;;22.14;45.77
45991;BME280;31721;41.740;-88.000;2023-07-30T03:36:15;99171.76;;;22.06;45.35
45991;BME280;31721;41.740;-88.000;2023-07-30T03:38:44;99178.31;;;21.97;45.51
45991;BME280;31721;41.740;-88.000;2023-07-30T03:41:13;99177.08;;;21.93;45.90
45991;BME280;31721;41.740;-88.000;2023-07-30T03:43:41;99172.54;;;21.89;45.93
45991;BME280;31721;41.740;-88.000;2023-07-30T03:46:09;99175.14;;;21.84;45.77
45991;BME280;31721;41.740;-88.000;2023-07-30T03:48:38;99174.70;;;21.82;46.19
45991;BME280;31721;41.740;-88.000;2023-07-30T03:51:06;99170.02;;;21.79;46.36
45991;BME280;31721;41.740;-88.000;2023-07-30T03:53:35;99167.34;;;21.77;46.43
45991;BME280;31721;41.740;-88.000;2023-07-30T03:56:03;99170.61;;;21.72;46.55
45991;BME280;31721;41.740;-88.000;2023-07-30T03:58:31;99169.39;;;21.61;46.61
45991;BME280;31721;41.740;-88.000;2023-07-30T04:00:59;99168.47;;;21.64;46.97
45991;BME280;31721;41.740;-88.000;2023-07-30T04:03:29;99163.48;;;21.64;47.10
45991;BME280;31721;41.740;-88.000;2023-07-30T04:05:57;99161.18;;;21.53;47.21
45991;BME280;31721;41.740;-88.000;2023-07-30T04:08:24;99166.70;;;21.74;47.45
45991;BME280;31721;41.740;-88.000;2023-07-30T04:10:53;99169.06;;;21.54;47.63
45991;BME280;31721;41.740;-88.000;2023-07-30T04:13:21;99168.97;;;21.51;47.71
45991;BME280;31721;41.740;-88.000;2023-07-30T04:15:49;99175.40;;;21.57;47.84
45991;BME280;31721;41.740;-88.000;2023-07-30T04:18:17;99177.24;;;21.47;47.97
45991;BME280;31721;41.740;-88.000;2023-07-30T04:20:45;99180.65;;;21.44;47.97
45991;BME280;31721;41.740;-88.000;2023-07-30T04:23:13;99180.85;;;21.40;48.00
45991;BME280;31721;41.740;-88.000;2023-07-30T04:25:42;99184.92;;;21.35;48.34
45991;BME280;31721;41.740;-88.000;2023-07-30T04:28:10;99190.39;;;21.33;48.55
45991;BME280;31721;41.740;-88.000;2023-07-30T04:30:38;99191.94;;;21.29;48.69
45991;BME280;31721;41.740;-88.000;2023-07-30T04:33:05;99196.05;;;21.24;48.91
45991;BME280;31721;41.740;-88.000;2023-07-30T04:35:33;99196.76;;;21.37;49.26
45991;BME280;31721;41.740;-88.000;2023-07-30T04:38:02;99192.84;;;21.29;49.58
45991;BME280;31721;41.740;-88.000;2023-07-30T04:40:30;99194.52;;;21.31;49.57
45991;BME280;31721;41.740;-88.000;2023-07-30T04:42:57;99196.89;;;21.14;49.92
45991;BME280;31721;41.740;-88.000;2023-07-30T04:45:25;99199.75;;;21.25;49.88
45991;BME280;31721;41.740;-88.000;2023-07-30T04:47:53;99201.95;;;21.09;50.01
45991;BME280;31721;41.740;-88.000;2023-07-30T04:50:21;99204.39;;;21.12;50.00
45991;BME280;31721;41.740;-88.000;2023-07-30T04:52:49;99206.18;;;21.04;49.89
45991;BME280;31721;41.740;-88.000;2023-07-30T04:55:17;99204.10;;;21.16;49.93
45991;BME280;31721;41.740;-88.000;2023-07-30T04:57:44;99204.02;;;20.96;50.17
45991;BME280;31721;41.740;-88.000;2023-07-30T05:00:13;99202.70;;;21.03;50.14
45991;BME280;31721;41.740;-88.000;2023-07-30T05:02:41;99201.91;;;21.00;50.34
45991;BME280;31721;41.740;-88.000;2023-07-30T05:05:09;99203.25;;;20.97;50.09
45991;BME280;31721;41.740;-88.000;2023-07-30T05:07:36;99207.53;;;21.01;50.41
45991;BME280;31721;41.740;-88.000;2023-07-30T05:10:06;99211.46;;;20.99;50.20
45991;BME280;31721;41.740;-88.000;2023-07-30T05:12:34;99209.60;;;20.84;49.60
45991;BME280;31721;41.740;-88.000;2023-07-30T05:15:03;99210.21;;;20.90;49.92
45991;BME280;31721;41.740;-88.000;2023-07-30T05:17:31;99211.26;;;20.79;50.18
45991;BME280;31721;41.740;-88.000;2023-07-30T05:19:58;99211.84;;;20.86;50.23
45991;BME280;31721;41.740;-88.000;2023-07-30T05:22:26;99210.14;;;20.85;50.15
45991;BME280;31721;41.740;-88.000;2023-07-30T05:24:54;99205.46;;;20.84;50.06
45991;BME280;31721;41.740;-88.000;2023-07-30T05:27:22;99206.47;;;20.84;50.08
45991;BME280;31721;41.740;-88.000;2023-07-30T05:29:49;99208.29;;;20.80;50.29
45991;BME280;31721;41.740;-88.000;2023-07-30T05:32:17;99215.31;;;20.77;50.56
45991;BME280;31721;41.740;-88.000;2023-07-30T05:34:45;99215.60;;;20.75;50.23
45991;BME280;31721;41.740;-88.000;2023-07-30T05:37:13;99211.86;;;20.73;50.34
45991;BME280;31721;41.740;-88.000;2023-07-30T05:39:40;99215.56;;;20.78;50.48
45991;BME280;31721;41.740;-88.000;2023-07-30T05:42:08;99215.10;;;20.60;50.63
45991;BME280;31721;41.740;-88.000;2023-07-30T05:44:36;99211.03;;;20.66;50.80
45991;BME280;31721;41.740;-88.000;2023-07-30T05:47:04;99210.58;;;20.64;50.67
45991;BME280;31721;41.740;-88.000;2023-07-30T05:49:32;99207.24;;;20.61;50.54
45991;BME280;31721;41.740;-88.000;2023-07-30T05:52:00;99210.13;;;20.61;50.75
45991;BME280;31721;41.740;-88.000;2023-07-30T05:54:27;99207.83;;;20.59;50.34
45991;BME280;31721;41.740;-88.000;2023-07-30T05:56:55;99202.86;;;20.50;50.42
45991;BME280;31721;41.740;-88.000;2023-07-30T05:59:23;99201.85;;;20.56;50.36
45991;BME280;31721;41.740;-88.000;2023-07-30T06:01:51;99200.04;;;20.53;50.63
45991;BME280;31721;41.740;-88.000;2023-07-30T06:04:19;99199.24;;;20.53;50.90
45991;BME280;31721;41.740;-88.000;2023-07-30T06:06:47;99199.11;;;20.54;50.96
45991;BME280;31721;41.740;-88.000;2023-07-30T06:09:15;99200.12;;;20.54;51.05
45991;BME280;31721;41.740;-88.000;2023-07-30T06:11:43;99203.06;;;20.46;51.24
45991;BME280;31721;41.740;-88.000;2023-07-30T06:14:11;99202.39;;;20.51;51.24
45991;BME280;31721;41.740;-88.000;2023-07-30T06:16:39;99201.77;;;20.52;51.64
45991;BME280;31721;41.740;-88.000;2023-07-30T06:19:07;99198.81;;;20.43;51.65
45991;BME280;31721;41.740;-88.000;2023-07-30T06:21:35;99200.20;;;20.50;51.46
45991;BME280;31721;41.740;-88.000;2023-07-30T06:24:03;99198.53;;;20.49;51.86
45991;BME280;31721;41.740;-88.000;2023-07-30T06:26:30;99196.03;;;20.43;51.67
45991;BME280;31721;41.740;-88.000;2023-07-30T06:28:58;99194.84;;;20.41;51.83
45991;BME280;31721;41.740;-88.000;2023-07-30T06:31:25;99193.19;;;20.40;51.85
45991;BME280;31721;41.740;-88.000;2023-07-30T06:33:53;99192.58;;;20.37;51.70
45991;BME280;31721;41.740;-88.000;2023-07-30T06:36:21;99189.94;;;20.34;51.97
45991;BME280;31721;41.740;-88.000;2023-07-30T06:38:48;99187.38;;;20.34;52.14
45991;BME280;31721;41.740;-88.000;2023-07-30T06:41:16;99186.69;;;20.31;52.27
45991;BME280;31721;41.740;-88.000;2023-07-30T06:43:44;99186.80;;;20.29;52.42
45991;BME280;31721;41.740;-88.000;2023-07-30T06:46:11;99185.67;;;20.23;52.51
45991;BME280;31721;41.740;-88.000;2023-07-30T06:48:39;99184.46;;;20.16;52.67
45991;BME280;31721;41.740;-88.000;2023-07-30T06:51:09;99186.56;;;20.03;52.45
45991;BME280;31721;41.740;-88.000;2023-07-30T06:53:37;99185.40;;;20.10;52.84
45991;BME280;31721;41.740;-88.000;2023-07-30T06:56:05;99185.75;;;20.09;52.58
45991;BME280;31721;41.740;-88.000;2023-07-30T06:58:32;99181.96;;;20.10;52.60
45991;BME280;31721;41.740;-88.000;2023-07-30T07:01:01;99179.05;;;20.15;52.67
45991;BME280;31721;41.740;-88.000;2023-07-30T07:03:28;99179.56;;;20.17;52.47
45991;BME280;31721;41.740;-88.000;2023-07-30T07:05:57;99178.01;;;20.20;52.28
45991;BME280;31721;41.740;-88.000;2023-07-30T07:08:24;99174.48;;;20.19;52.19
45991;BME280;31721;41.740;-88.000;2023-07-30T07:10:52;99173.01;;;20.22;52.40
45991;BME280;31721;41.740;-88.000;2023-07-30T07:13:19;99173.47;;;20.22;52.38
45991;BME280;31721;41.740;-88.000;2023-07-30T07:15:47;99173.22;;;20.23;52.09
45991;BME280;31721;41.740;-88.000;2023-07-30T07:18:15;99172.40;;;20.23;52.18
45991;BME280;31721;41.740;-88.000;2023-07-30T07:20:43;99174.27;;;20.14;52.24
45991;BME280;31721;41.740;-88.000;2023-07-30T07:23:11;99175.89;;;20.21;52.41
45991;BME280;31721;41.740;-88.000;2023-07-30T07:25:38;99177.85;;;20.26;52.67
45991;BME280;31721;41.740;-88.000;2023-07-30T07:28:06;99181.56;;;20.17;52.59
45991;BME280;31721;41.740;-88.000;2023-07-30T07:30:35;99183.21;;;20.16;52.75
45991;BME280;31721;41.740;-88.000;2023-07-30T07:33:03;99181.82;;;20.15;52.90
45991;BME280;31721;41.740;-88.000;2023-07-30T07:35:30;99179.13;;;20.19;52.84
45991;BME280;31721;41.740;-88.000;2023-07-30T07:37:58;99180.88;;;20.18;52.90
45991;BME280;31721;41.740;-88.000;2023-07-30T07:40:26;99184.27;;;20.06;52.91
45991;BME280;31721;41.740;-88.000;2023-07-30T07:42:55;99183.63;;;20.13;53.26
45991;BME280;31721;41.740;-88.000;2023-07-30T07:45:22;99178.71;;;20.10;53.25
45991;BME280;31721;41.740;-88.000;2023-07-30T07:47:50;99179.71;;;20.05;53.61
45991;BME280;31721;41.740;-88.000;2023-07-30T07:50:17;99180.43;;;20.10;53.74
45991;BME280;31721;41.740;-88.000;2023-07-30T07:52:45;99178.81;;;20.15;53.83
45991;BME280;31721;41.740;-88.000;2023-07-30T07:55:12;99177.09;;;20.21;54.02
45991;BME280;31721;41.740;-88.000;2023-07-30T07:57:40;99174.74;;;20.18;53.93
45991;BME280;31721;41.740;-88.000;2023-07-30T08:00:08;99175.48;;;20.18;53.77
45991;BME280;31721;41.740;-88.000;2023-07-30T08:02:36;99175.61;;;20.19;54.04
45991;BME280;31721;41.740;-88.000;2023-07-30T08:05:04;99178.04;;;20.31;54.14
45991;BME280;31721;41.740;-88.000;2023-07-30T08:07:32;99178.38;;;20.33;53.90
45991;BME280;31721;41.740;-88.000;2023-07-30T08:10:00;99186.07;;;20.35;53.94
45991;BME280;31721;41.740;-88.000;2023-07-30T08:12:27;99185.39;;;20.28;54.09
45991;BME280;31721;41.740;-88.000;2023-07-30T08:14:55;99183.29;;;20.31;54.04
45991;BME280;31721;41.740;-88.000;2023-07-30T08:17:23;99181.96;;;20.41;53.98
45991;BME280;31721;41.740;-88.000;2023-07-30T08:19:51;99181.11;;;20.34;54.06
45991;BME280;31721;41.740;-88.000;2023-07-30T08:22:18;99180.31;;;20.36;54.12
45991;BME280;31721;41.740;-88.000;2023-07-30T08:24:46;99179.97;;;20.48;54.34
45991;BME280;31721;41.740;-88.000;2023-07-30T08:27:14;99178.28;;;20.35;54.21
45991;BME280;31721;41.740;-88.000;2023-07-30T08:29:42;99173.02;;;20.45;54.21
45991;BME280;31721;41.740;-88.000;2023-07-30T08:32:10;99168.64;;;20.54;54.26
45991;BME280;31721;41.740;-88.000;2023-07-30T08:34:38;99174.56;;;20.39;54.31
45991;BME280;31721;41.740;-88.000;2023-07-30T08:37:06;99179.27;;;20.40;54.16
45991;BME280;31721;41.740;-88.000;2023-07-30T08:39:34;99180.76;;;20.34;54.41
45991;BME280;31721;41.740;-88.000;2023-07-30T08:42:03;99180.95;;;20.35;54.36
45991;BME280;31721;41.740;-88.000;2023-07-30T08:44:31;99174.98;;;20.35;54.52
45991;BME280;31721;41.740;-88.000;2023-07-30T08:46:59;99170.07;;;20.46;54.26
45991;BME280;31721;41.740;-88.000;2023-07-30T08:49:26;99175.87;;;20.50;54.32
45991;BME280;31721;41.740;-88.000;2023-07-30T08:51:54;99170.46;;;20.51;54.35
45991;BME280;31721;41.740;-88.000;2023-07-30T08:54:23;99166.96;;;20.50;54.31
45991;BME280;31721;41.740;-88.000;2023-07-30T08:56:51;99164.40;;;20.53;54.30
45991;BME280;31721;41.740;-88.000;2023-07-30T08:59:20;99169.47;;;20.45;53.99
45991;BME280;31721;41.740;-88.000;2023-07-30T09:01:51;99166.26;;;20.52;53.98
45991;BME280;31721;41.740;-88.000;2023-07-30T09:04:20;99170.44;;;20.51;53.94
45991;BME280;31721;41.740;-88.000;2023-07-30T09:06:48;99169.47;;;20.49;54.00
45991;BME280;31721;41.740;-88.000;2023-07-30T09:09:17;99171.63;;;20.48;54.21
45991;BME280;31721;41.740;-88.000;2023-07-30T09:11:51;99178.18;;;20.48;54.27
45991;BME280;31721;41.740;-88.000;2023-07-30T09:14:20;99175.64;;;20.44;54.40
45991;BME280;31721;41.740;-88.000;2023-07-30T09:16:47;99171.80;;;20.43;54.53
45991;BME280;31721;41.740;-88.000;2023-07-30T09:19:17;99170.91;;;20.41;54.52
45991;BME280;31721;41.740;-88.000;2023-07-30T09:21:45;99169.63;;;20.46;54.42
45991;BME280;31721;41.740;-88.000;2023-07-30T09:24:14;99168.94;;;20.37;54.28
45991;BME280;31721;41.740;-88.000;2023-07-30T09:26:48;99169.38;;;20.31;54.46
45991;BME280;31721;41.740;-88.000;2023-07-30T09:29:15;99165.20;;;20.32;54.41
45991;BME280;31721;41.740;-88.000;2023-07-30T09:31:48;99166.49;;;20.22;54.74
45991;BME280;31721;41.740;-88.000;2023-07-30T09:34:16;99162.55;;;20.17;55.02
45991;BME280;31721;41.740;-88.000;2023-07-30T09:36:46;99157.57;;;20.12;54.94
45991;BME280;31721;41.740;-88.000;2023-07-30T09:39:16;99155.08;;;20.12;55.17
45991;BME280;31721;41.740;-88.000;2023-07-30T09:41:44;99162.01;;;20.08;55.02
45991;BME280;31721;41.740;-88.000;2023-07-30T09:44:12;99166.19;;;20.06;55.04
45991;BME280;31721;41.740;-88.000;2023-07-30T09:46:43;99168.89;;;20.02;55.20
45991;BME280;31721;41.740;-88.000;2023-07-30T09:49:11;99168.17;;;20.04;55.33
45991;BME280;31721;41.740;-88.000;2023-07-30T09:51:40;99169.46;;;20.01;55.18
45991;BME280;31721;41.740;-88.000;2023-07-30T09:54:09;99168.29;;;20.06;55.26
45991;BME280;31721;41.740;-88.000;2023-07-30T09:56:38;99165.94;;;19.97;55.39
45991;BME280;31721;41.740;-88.000;2023-07-30T09:59:07;99167.88;;;19.98;55.44
45991;BME280;31721;41.740;-88.000;2023-07-30T10:01:39;99164.05;;;19.96;55.41
45991;BME280;31721;41.740;-88.000;2023-07-30T10:04:11;99162.80;;;20.02;55.52
45991;BME280;31721;41.740;-88.000;2023-07-30T10:06:42;99161.21;;;19.98;55.56
45991;BME280;31721;41.740;-88.000;2023-07-30T10:09:13;99162.73;;;19.98;55.63
45991;BME280;31721;41.740;-88.000;2023-07-30T10:11:43;99162.87;;;19.96;55.74
45991;BME280;31721;41.740;-88.000;2023-07-30T10:14:13;99160.85;;;19.88;55.74
45991;BME280;31721;41.740;-88.000;2023-07-30T10:16:51;99166.71;;;19.92;55.77
45991;BME280;31721;41.740;-88.000;2023-07-30T10:19:23;99163.41;;;19.88;55.71
45991;BME280;31721;41.740;-88.000;2023-07-30T10:21:50;99160.47;;;19.82;55.70
45991;BME280;31721;41.740;-88.000;2023-07-30T10:24:18;99161.34;;;19.88;55.81
45991;BME280;31721;41.740;-88.000;2023-07-30T10:26:46;99160.96;;;19.74;55.81
45991;BME280;31721;41.740;-88.000;2023-07-30T10:29:15;99167.29;;;19.81;55.85
45991;BME280;31721;41.740;-88.000;2023-07-30T10:31:48;99176.25;;;19.71;55.91
45991;BME280;31721;41.740;-88.000;2023-07-30T10:34:16;99177.22;;;19.63;56.00
45991;BME280;31721;41.740;-88.000;2023-07-30T10:36:46;99177.95;;;19.67;56.00
45991;BME280;31721;41.740;-88.000;2023-07-30T10:39:15;99182.37;;;19.68;56.22
45991;BME280;31721;41.740;-88.000;2023-07-30T10:41:44;99185.31;;;19.65;56.40
45991;BME280;31721;41.740;-88.000;2023-07-30T10:44:22;99185.15;;;19.74;56.53
45991;BME280;31721;41.740;-88.000;2023-07-30T10:46:50;99188.77;;;19.76;56.45
45991;BME280;31721;41.740;-88.000;2023-07-30T10:49:18;99189.64;;;19.75;56.36
45991;BME280;31721;41.740;-88.000;2023-07-30T10:51:45;99194.80;;;19.68;56.11
45991;BME280;31721;41.740;-88.000;2023-07-30T10:54:13;99192.01;;;19.69;56.25
45991;BME280;31721;41.740;-88.000;2023-07-30T10:56:41;99190.92;;;19.78;56.30
45991;BME280;31721;41.740;-88.000;2023-07-30T10:59:09;99191.59;;;19.71;56.45
45991;BME280;31721;41.740;-88.000;2023-07-30T11:01:38;99189.14;;;19.72;56.42
45991;BME280;31721;41.740;-88.000;2023-07-30T11:04:08;99193.34;;;19.74;56.39
45991;BME280;31721;41.740;-88.000;2023-07-30T11:06:36;99193.33;;;19.74;56.30
45991;BME280;31721;41.740;-88.000;2023-07-30T11:09:04;99192.05;;;19.68;56.47
45991;BME280;31721;41.740;-88.000;2023-07-30T11:11:32;99197.43;;;19.69;56.54
45991;BME280;31721;41.740;-88.000;2023-07-30T11:14:00;99200.87;;;19.69;56.57
45991;BME280;31721;41.740;-88.000;2023-07-30T11:16:28;99197.61;;;19.76;56.79
45991;BME280;31721;41.740;-88.000;2023-07-30T11:18:55;99201.15;;;19.86;56.64
45991;BME280;31721;41.740;-88.000;2023-07-30T11:21:23;99197.75;;;19.85;56.94
45991;BME280;31721;41.740;-88.000;2023-07-30T11:23:51;99197.87;;;19.89;57.07
45991;BME280;31721;41.740;-88.000;2023-07-30T11:26:20;99197.82;;;19.89;57.05
45991;BME280;31721;41.740;-88.000;2023-07-30T11:28:47;99202.88;;;19.81;57.06
45991;BME280;31721;41.740;-88.000;2023-07-30T11:31:16;99199.44;;;19.72;57.16
45991;BME280;31721;41.740;-88.000;2023-07-30T11:33:47;99198.23;;;19.74;57.25
45991;BME280;31721;41.740;-88.000;2023-07-30T11:36:17;99207.66;;;19.74;57.31
45991;BME280;31721;41.740;-88.000;2023-07-30T11:38:46;99207.34;;;19.85;57.33
45991;BME280;31721;41.740;-88.000;2023-07-30T11:41:15;99206.76;;;19.79;57.39
45991;BME280;31721;41.740;-88.000;2023-07-30T11:43:44;99202.71;;;19.88;57.67
45991;BME280;31721;41.740;-88.000;2023-07-30T11:46:13;99204.93;;;19.81;57.60
45991;BME280;31721;41.740;-88.000;2023-07-30T11:48:43;99204.02;;;19.86;57.82
45991;BME280;31721;41.740;-88.000;2023-07-30T11:51:21;99217.63;;;19.86;57.94
45991;BME280;31721;41.740;-88.000;2023-07-30T11:53:50;99217.29;;;20.01;57.91
45991;BME280;31721;41.740;-88.000;2023-07-30T11:56:21;99222.56;;;19.87;57.81
45991;BME280;31721;41.740;-88.000;2023-07-30T11:58:55;99223.51;;;20.06;58.02
45991;BME280;31721;41.740;-88.000;2023-07-30T12:01:25;99224.69;;;20.03;57.95
45991;BME280;31721;41.740;-88.000;2023-07-30T12:03:55;99223.14;;;20.12;58.29
45991;BME280;31721;41.740;-88.000;2023-07-30T12:06:24;99229.83;;;20.19;58.45
45991;BME280;31721;41.740;-88.000;2023-07-30T12:08:52;99233.18;;;20.14;58.19
45991;BME280;31721;41.740;-88.000;2023-07-30T12:11:20;99236.95;;;20.20;58.12
45991;BME280;31721;41.740;-88.000;2023-07-30T12:13:47;99236.49;;;20.27;58.39
45991;BME280;31721;41.740;-88.000;2023-07-30T12:16:15;99239.01;;;20.26;58.19
45991;BME280;31721;41.740;-88.000;2023-07-30T12:18:43;99239.02;;;20.42;58.55
45991;BME280;31721;41.740;-88.000;2023-07-30T12:21:11;99240.92;;;20.47;58.53
45991;BME280;31721;41.740;-88.000;2023-07-30T12:23:39;99243.13;;;20.59;58.34
45991;BME280;31721;41.740;-88.000;2023-07-30T12:26:07;99243.65;;;20.62;58.23
45991;BME280;31721;41.740;-88.000;2023-07-30T12:28:34;99248.58;;;20.74;58.15
45991;BME280;31721;41.740;-88.000;2023-07-30T12:31:02;99249.66;;;20.86;57.98
45991;BME280;31721;41.740;-88.000;2023-07-30T12:33:30;99251.78;;;20.96;58.08
45991;BME280;31721;41.740;-88.000;2023-07-30T12:35:57;99259.04;;;21.07;57.95
45991;BME280;31721;41.740;-88.000;2023-07-30T12:38:25;99260.25;;;21.17;57.68
45991;BME280;31721;41.740;-88.000;2023-07-30T12:40:53;99259.99;;;21.17;57.70
45991;BME280;31721;41.740;-88.000;2023-07-30T12:43:21;99259.16;;;21.19;57.71
45991;BME280;31721;41.740;-88.000;2023-07-30T12:45:48;99257.94;;;21.51;57.72